createdAt,value
2022-10-05T03:35:55.338Z,4.34
2022-10-05T03:41:01.358Z,4.34
2022-10-05T03:46:06.572Z,4.32
2022-10-05T03:51:12.081Z,4.32
2022-10-05T03:56:18.374Z,4.7
2022-10-05T04:01:22.497Z,4.7
2022-10-05T04:06:26.456Z,4.29
2022-10-05T04:11:30.840Z,5.17
2022-10-05T04:16:34.711Z,5.17
2022-10-05T04:21:40.326Z,4.75
2022-10-05T04:26:47.725Z,4.75
2022-10-05T04:31:57.983Z,4.98
2022-10-05T04:37:02.549Z,4.98
2022-10-05T04:42:09.577Z,5.39
2022-10-05T04:52:23.032Z,5.06
2022-10-05T04:57:28.575Z,5.06
2022-10-05T05:07:40.943Z,5.23
2022-10-05T05:33:17.140Z,6.07
2022-10-05T05:38:24.389Z,5.61
2022-10-05T05:43:29.780Z,5.61
2022-10-05T05:48:36.093Z,5.89
2022-10-05T05:53:39.953Z,5.89
2022-10-05T05:58:45.762Z,5.79
2022-10-05T06:03:50.918Z,5.79
2022-10-05T06:08:53.589Z,5.9
2022-10-05T06:13:57.225Z,5.9
2022-10-05T06:19:01.763Z,6.08
2022-10-05T06:29:12.897Z,6.15
2022-10-05T06:39:29.590Z,6.83
2022-10-05T06:44:36.493Z,7.26
2022-10-05T06:59:56.945Z,7.68
2022-10-05T07:20:28.250Z,8.98
2022-10-05T07:25:34.389Z,8.98
2022-10-05T07:30:40.386Z,9.41
2022-10-05T07:35:47.539Z,9.41
2022-10-05T07:40:51.936Z,9.61
2022-10-05T07:45:57.607Z,9.61
2022-10-05T07:51:05.637Z,9.95
2022-10-05T08:01:15.624Z,10.23
2022-10-05T08:11:29.077Z,10.89
2022-10-05T08:16:34.192Z,10.89
2022-10-05T08:21:39.077Z,11.29
2022-10-05T08:31:49.276Z,11.39
2022-10-05T08:36:57.790Z,11.25
2022-10-05T08:47:17.458Z,11.86
2022-10-05T08:52:23.169Z,11.86
2022-10-05T09:13:00.663Z,12.75
2022-10-05T09:28:22.689Z,14.06
2022-10-05T10:04:18.914Z,17.38
2022-10-05T10:09:27.345Z,17.38
2022-10-05T10:25:01.027Z,17.55
2022-10-05T10:35:21.240Z,18.08
2022-10-05T10:40:29.153Z,18.03
2022-10-05T10:45:36.660Z,18.03
2022-10-05T10:50:53.031Z,17.25
2022-10-05T11:06:16.978Z,17.76
2022-10-05T11:11:23.096Z,16.93
2022-10-05T11:21:37.612Z,17.63
2022-10-05T11:47:16.026Z,18.57
2022-10-05T11:52:21.835Z,18.57
2022-10-05T11:57:27.751Z,18.1
2022-10-05T12:07:42.610Z,17.96
2022-10-05T12:12:50.370Z,17.96
2022-10-05T12:17:55.303Z,17.99
2022-10-05T12:22:59.254Z,17.99
2022-10-05T12:28:04.150Z,17.76
2022-10-05T12:38:16.876Z,18.28
2022-10-05T12:43:23.550Z,18.98
2022-10-05T12:48:32.749Z,18.98
2022-10-05T12:53:39.944Z,18.16
2022-10-05T13:08:57.063Z,18.19
2022-10-05T13:14:05.571Z,18.23
2022-10-05T13:19:14.579Z,18.23
2022-10-05T13:34:30.618Z,17.21
2022-10-05T13:44:43.626Z,16.77
2022-10-05T13:49:50.012Z,16.8
2022-10-05T13:54:55.646Z,16.8
2022-10-05T13:59:58.893Z,17.27
2022-10-05T14:05:01.792Z,17.27
2022-10-05T14:15:19.573Z,16.82
2022-10-05T14:20:23.052Z,16.62
2022-10-05T14:25:24.852Z,16.62
2022-10-05T14:30:27.556Z,16.07
2022-10-05T14:35:30.806Z,15.82
2022-10-05T14:40:33.596Z,15.82
2022-10-05T14:45:35.310Z,15.46
2022-10-05T15:00:55.429Z,15.2
2022-10-05T15:05:59.232Z,14.88
2022-10-05T15:11:03.919Z,14.88
2022-10-05T15:26:24.790Z,14.22
2022-10-05T15:31:29.661Z,13.93
2022-10-05T15:36:34.275Z,13.93
2022-10-05T15:46:50.967Z,13.6
2022-10-05T15:51:56.759Z,13.38
2022-10-05T15:57:01.898Z,13.38
2022-10-05T16:02:06.322Z,13.22
2022-10-05T16:07:11.555Z,13.22
2022-10-05T16:12:17.430Z,12.97
2022-10-05T16:22:30.965Z,12.77
2022-10-05T16:32:43.809Z,12.65
2022-10-05T16:42:59.108Z,12.5
2022-10-05T16:48:05.003Z,12.48
2022-10-05T16:53:11.526Z,12.48
2022-10-05T16:58:16.174Z,12.33
2022-10-05T17:03:22.367Z,12.33
2022-10-05T17:13:38.511Z,12.39
2022-10-05T17:23:59.879Z,12.28
2022-10-05T17:34:12.239Z,11.95
2022-10-05T17:39:14.924Z,11.95
2022-10-05T17:44:17.946Z,11.84
2022-10-05T17:49:24.652Z,11.84
2022-10-05T17:54:28.581Z,12.05
2022-10-05T18:04:38.121Z,12.01
2022-10-05T18:14:53.262Z,11.91
2022-10-05T18:25:09.193Z,11.84
2022-10-05T18:30:16.490Z,11.84
2022-10-05T18:35:20.988Z,11.79
2022-10-05T18:40:27.079Z,11.92
2022-10-05T18:50:40.147Z,11.77
2022-10-05T18:55:44.727Z,11.77
2022-10-05T19:06:04.445Z,11.81
2022-10-05T19:11:17.034Z,11.79
2022-10-05T19:16:27.378Z,11.79
2022-10-05T19:31:46.964Z,11.81
2022-10-05T19:36:54.880Z,11.75
2022-10-05T19:47:08.339Z,11.76
2022-10-05T19:52:11.980Z,11.76
2022-10-05T19:57:15.871Z,11.88
2022-10-05T20:07:23.389Z,11.72
2022-10-05T20:17:30.433Z,11.64
2022-10-05T20:22:33.016Z,11.64
2022-10-05T20:27:36.287Z,11.63
2022-10-05T20:32:37.969Z,11.63
2022-10-05T20:37:39.630Z,11.63
2022-10-05T20:42:41.278Z,11.62
2022-10-05T20:47:42.874Z,11.62
2022-10-05T20:52:44.466Z,11.62
2022-10-05T20:57:46.025Z,11.62
2022-10-05T21:02:47.652Z,11.62
2022-10-05T21:07:49.311Z,11.62
2022-10-05T21:12:50.954Z,11.62
2022-10-05T21:17:52.669Z,11.62
2022-10-05T21:22:54.355Z,11.62
2022-10-05T21:27:56.149Z,11.62
2022-10-05T21:32:58.260Z,11.62
2022-10-05T21:37:59.881Z,11.62
